Time;durP1;ratioP1;P1;durP2;ratioP2;P2;SDS_P1;SDS_P2;PMS_P1;PMS_P2;Temp;Humidity;BMP_temperature;BMP_pressure;BME280_temperature;BME280_humidity;BME280_pressure;Samples;Min_cycle;Max_cycle;Signal;HPM_P1;HPM_P2
2023/03/02 00:01:19;;;;;;;1999.90;999.90;;;-0.70;99.90;;;;;;5091311;28;20845;-73
2023/03/02 00:03:46;;;;;;;1999.90;999.90;;;-0.80;99.90;;;;;;5091410;28;20973;-72
2023/03/02 00:06:14;;;;;;;1999.90;999.90;;;-0.80;99.90;;;;;;5090668;28;20532;-72
2023/03/02 00:08:41;;;;;;;1999.90;999.90;;;-0.80;99.90;;;;;;5089664;28;20946;-73
2023/03/02 00:11:08;;;;;;;1999.90;999.90;;;-0.80;99.90;;;;;;5091311;28;20425;-71
2023/03/02 00:13:36;;;;;;;1999.90;999.90;;;-0.90;99.90;;;;;;5091955;28;20426;-73
2023/03/02 00:16:03;;;;;;;1999.90;999.90;;;-0.30;99.90;;;;;;5092766;28;20434;-73
2023/03/02 00:18:30;;;;;;;1999.90;999.90;;;-0.80;99.90;;;;;;5090888;28;22132;-73
2023/03/02 00:20:57;;;;;;;1999.90;999.90;;;-0.70;99.90;;;;;;5088314;28;21156;-72
2023/03/02 00:23:26;;;;;;;1999.90;999.90;;;-0.70;99.90;;;;;;5092236;28;20504;-75
2023/03/02 00:25:53;;;;;;;1999.90;999.90;;;-1.00;99.90;;;;;;5089615;28;20431;-72
2023/03/02 00:28:19;;;;;;;1999.90;999.90;;;-1.10;99.90;;;;;;5075763;28;20427;-72
2023/03/02 00:30:46;;;;;;;1999.90;999.90;;;-0.90;99.90;;;;;;5081302;28;20434;-73
2023/03/02 00:33:13;;;;;;;1999.90;999.90;;;-0.70;99.90;;;;;;5091029;28;20487;-71
2023/03/02 00:35:40;;;;;;;1999.90;999.90;;;-1.20;99.90;;;;;;5091716;28;20422;-72
2023/03/02 00:38:07;;;;;;;1999.90;999.90;;;-1.10;99.90;;;;;;5093148;28;20433;-74
2023/03/02 00:40:36;;;;;;;1999.90;999.90;;;-1.20;99.90;;;;;;5093536;28;20435;-72
2023/03/02 00:43:03;;;;;;;1999.90;999.90;;;-1.40;99.90;;;;;;5094290;28;20438;-71
2023/03/02 00:45:30;;;;;;;1999.90;999.90;;;-1.40;99.90;;;;;;5092438;28;20437;-72
2023/03/02 00:47:56;;;;;;;1999.90;999.90;;;-1.40;99.90;;;;;;5090296;28;20430;-72
2023/03/02 00:50:23;;;;;;;1999.90;999.90;;;-1.30;99.90;;;;;;5086027;28;21120;-71
2023/03/02 00:52:51;;;;;;;1999.90;999.90;;;-1.20;99.90;;;;;;5089015;28;22416;-72
2023/03/02 00:55:18;;;;;;;1999.90;999.90;;;-1.20;99.90;;;;;;5089435;28;20432;-73
2023/03/02 00:57:53;;;;;;;1999.90;999.90;;;-1.20;99.90;;;;;;5088288;28;20501;-72
2023/03/02 01:00:20;;;;;;;1999.90;999.90;;;-1.20;99.90;;;;;;5089291;28;20426;-71
2023/03/02 01:02:47;;;;;;;1999.90;999.90;;;-1.10;99.90;;;;;;5090950;28;20425;-70
2023/03/02 01:05:14;;;;;;;1999.90;999.90;;;-1.10;99.90;;;;;;5091758;28;21123;-72
2023/03/02 01:07:40;;;;;;;1999.90;999.90;;;-0.90;99.90;;;;;;5090829;28;20456;-72
2023/03/02 01:10:08;;;;;;;1999.90;999.90;;;-0.90;99.90;;;;;;5091826;28;20479;-72
2023/03/02 01:12:35;;;;;;;1999.90;999.90;;;-1.20;99.90;;;;;;5088006;28;20426;-71
2023/03/02 01:15:04;;;;;;;1999.90;999.90;;;-1.20;99.90;;;;;;5087157;28;20423;-72
2023/03/02 01:17:31;;;;;;;1999.90;999.90;;;-1.40;99.90;;;;;;5088812;28;20456;-75
2023/03/02 01:19:58;;;;;;;1999.90;999.90;;;-1.40;99.90;;;;;;5089859;28;20921;-74
2023/03/02 01:22:26;;;;;;;1999.90;999.90;;;-1.40;99.90;;;;;;5091815;28;20788;-72
2023/03/02 01:24:53;;;;;;;1999.90;999.90;;;-1.10;99.90;;;;;;5090033;28;20845;-72
2023/03/02 01:27:19;;;;;;;1999.90;999.90;;;-0.90;99.90;;;;;;5088760;28;20492;-73
2023/03/02 01:29:46;;;;;;;1999.90;999.90;;;-1.30;99.90;;;;;;5088064;28;20786;-71
2023/03/02 01:32:14;;;;;;;1999.90;999.90;;;-1.30;99.90;;;;;;5090016;28;21001;-72
2023/03/02 01:34:41;;;;;;;1999.90;999.90;;;-1.40;99.90;;;;;;5093567;28;20426;-72
2023/03/02 01:37:07;;;;;;;1999.90;999.90;;;-1.30;99.90;;;;;;5095555;28;20429;-72
2023/03/02 01:39:34;;;;;;;1999.90;999.90;;;-1.30;99.90;;;;;;5096665;28;20442;-72
2023/03/02 01:42:01;;;;;;;1999.90;999.90;;;-1.20;99.90;;;;;;5089668;28;20459;-72
2023/03/02 01:44:36;;;;;;;1999.90;999.90;;;-1.20;99.90;;;;;;5093232;28;20429;-71
2023/03/02 01:47:05;;;;;;;1999.90;999.90;;;-1.20;99.90;;;;;;5091341;28;20483;-72
2023/03/02 01:49:37;;;;;;;1999.90;999.90;;;-1.20;99.90;;;;;;5095428;28;20490;-72
2023/03/02 01:52:04;;;;;;;1999.90;999.90;;;-1.20;99.90;;;;;;5085030;28;20421;-73
2023/03/02 01:54:31;;;;;;;1999.90;999.90;;;-0.90;99.90;;;;;;5087039;28;20513;-74
2023/03/02 01:57:01;;;;;;;1999.90;999.90;;;-1.40;99.90;;;;;;5095394;28;20849;-70
2023/03/02 01:59:31;;;;;;;1999.90;999.90;;;-1.50;99.90;;;;;;5093660;28;20475;-72
2023/03/02 02:02:03;;;;;;;1999.90;999.90;;;-1.60;99.90;;;;;;5093977;28;20467;-73
2023/03/02 02:04:30;;;;;;;1999.90;999.90;;;-1.60;99.90;;;;;;5093017;28;20441;-72
2023/03/02 02:07:02;;;;;;;1999.90;999.90;;;-1.60;99.90;;;;;;5091761;28;20836;-70
2023/03/02 02:09:32;;;;;;;1999.90;999.90;;;-1.60;99.90;;;;;;5094955;28;20547;-73
2023/03/02 02:11:58;;;;;;;1999.90;999.90;;;-1.50;99.90;;;;;;5095162;28;20429;-72
2023/03/02 02:14:26;;;;;;;1999.90;999.90;;;-1.50;99.90;;;;;;5094982;28;20437;-72
2023/03/02 02:16:52;;;;;;;1999.90;999.90;;;-1.60;99.90;;;;;;5093516;28;20438;-72
2023/03/02 02:19:34;;;;;;;1999.90;999.90;;;-1.70;99.90;;;;;;5092920;28;20426;-72
2023/03/02 02:22:02;;;;;;;1999.90;999.90;;;-1.30;99.90;;;;;;5092632;28;21018;-76
2023/03/02 02:24:34;;;;;;;1999.90;999.90;;;-1.80;99.90;;;;;;5093992;28;20441;-72
2023/03/02 02:27:02;;;;;;;1999.90;999.90;;;-1.80;99.90;;;;;;5093208;28;20434;-73
2023/03/02 02:29:31;;;;;;;1999.90;999.90;;;-1.90;99.90;;;;;;5094693;28;20780;-72
2023/03/02 02:32:02;;;;;;;1999.90;999.90;;;-1.90;99.90;;;;;;5093896;28;20431;-72
2023/03/02 02:34:32;;;;;;;1999.90;999.90;;;-1.90;99.90;;;;;;5091019;28;20491;-71
2023/03/02 02:37:05;;;;;;;1999.90;999.90;;;-1.80;99.90;;;;;;5093334;28;20422;-73
2023/03/02 02:39:36;;;;;;;1999.90;999.90;;;-1.70;99.90;;;;;;5091108;28;20434;-71
2023/03/02 02:42:07;;;;;;;1999.90;999.90;;;-1.70;99.90;;;;;;5094482;28;20802;-72
2023/03/02 02:44:34;;;;;;;1999.90;999.90;;;-1.80;99.90;;;;;;5091703;28;20426;-72
2023/03/02 02:47:01;;;;;;;1999.90;999.90;;;-1.80;99.90;;;;;;5096070;28;20440;-72
2023/03/02 02:49:32;;;;;;;1999.90;999.90;;;-1.80;99.90;;;;;;5091952;28;20422;-73
2023/03/02 02:51:59;;;;;;;1999.90;999.90;;;-1.60;99.90;;;;;;5093598;28;20431;-72
2023/03/02 02:54:28;;;;;;;1999.90;999.90;;;-1.60;99.90;;;;;;5095525;28;20438;-72
2023/03/02 02:56:56;;;;;;;1999.90;999.90;;;-1.50;99.90;;;;;;5094198;28;20435;-72
2023/03/02 02:59:27;;;;;;;1999.90;999.90;;;-1.60;99.90;;;;;;5094686;28;20445;-71
2023/03/02 03:01:56;;;;;;;1999.90;999.90;;;-1.60;99.90;;;;;;5093578;28;20424;-72
2023/03/02 03:04:26;;;;;;;1999.90;999.90;;;-1.60;99.90;;;;;;5094275;28;20425;-73
2023/03/02 03:06:55;;;;;;;1999.90;999.90;;;-1.70;99.90;;;;;;5095104;28;20429;-72
2023/03/02 03:09:23;;;;;;;1999.90;999.90;;;-1.70;99.90;;;;;;5093151;28;20430;-72
2023/03/02 03:11:51;;;;;;;1999.90;999.90;;;-1.60;99.90;;;;;;5090923;28;20881;-71
2023/03/02 03:14:20;;;;;;;1999.90;999.90;;;-1.70;99.90;;;;;;5091972;28;20485;-73
2023/03/02 03:16:50;;;;;;;1999.90;999.90;;;-1.40;99.90;;;;;;5091867;28;20485;-73
2023/03/02 03:19:19;;;;;;;1999.90;999.90;;;-1.70;99.90;;;;;;5093217;28;20426;-72
2023/03/02 03:21:49;;;;;;;1999.90;999.90;;;-1.80;99.90;;;;;;5093742;28;20433;-71
2023/03/02 03:24:15;;;;;;;1999.90;999.90;;;-1.80;99.90;;;;;;5093997;28;20441;-76
2023/03/02 03:26:42;;;;;;;1999.90;999.90;;;-1.90;99.90;;;;;;5091015;28;20434;-73
2023/03/02 03:29:09;;;;;;;1999.90;999.90;;;-1.90;99.90;;;;;;5093547;28;20426;-72
2023/03/02 03:31:36;;;;;;;1999.90;999.90;;;-1.50;99.90;;;;;;5090032;28;20471;-72
2023/03/02 03:34:05;;;;;;;1999.90;999.90;;;-1.80;99.90;;;;;;5092185;28;20499;-73
2023/03/02 03:36:33;;;;;;;1999.90;999.90;;;-1.70;99.90;;;;;;5091580;28;20426;-72
2023/03/02 03:39:00;;;;;;;1999.90;999.90;;;-1.80;99.90;;;;;;5091121;28;20432;-72
2023/03/02 03:41:27;;;;;;;1999.90;999.90;;;-1.80;99.90;;;;;;5094148;28;20426;-72
2023/03/02 03:43:54;;;;;;;1999.90;999.90;;;-1.20;99.90;;;;;;5091825;28;20466;-72
2023/03/02 03:46:21;;;;;;;1999.90;999.90;;;-1.80;99.90;;;;;;5093257;28;20429;-72
2023/03/02 03:48:48;;;;;;;1999.90;999.90;;;-1.70;99.90;;;;;;5093110;28;20445;-74
2023/03/02 03:51:16;;;;;;;1999.90;999.90;;;-1.70;99.90;;;;;;5087211;28;20434;-73
2023/03/02 03:53:43;;;;;;;1999.90;999.90;;;-1.60;99.90;;;;;;5089331;28;20448;-72
2023/03/02 03:56:09;;;;;;;1999.90;999.90;;;-1.80;99.90;;;;;;5088266;28;20915;-68
2023/03/02 03:58:36;;;;;;;1999.90;999.90;;;-2.00;99.90;;;;;;5092171;28;20480;-73
2023/03/02 04:01:04;;;;;;;1999.90;999.90;;;-2.00;99.90;;;;;;5091131;28;20422;-72
2023/03/02 04:03:31;;;;;;;1999.90;999.90;;;-1.90;99.90;;;;;;5091517;28;20430;-68
2023/03/02 04:05:58;;;;;;;1999.90;999.90;;;-1.60;99.90;;;;;;5092609;28;20489;-78
2023/03/02 04:08:26;;;;;;;1999.90;999.90;;;-1.50;99.90;;;;;;5091635;28;20425;-71
2023/03/02 04:10:52;;;;;;;1999.90;999.90;;;-2.00;99.90;;;;;;5093954;28;20448;-69
2023/03/02 04:13:19;;;;;;;1999.90;999.90;;;-2.10;99.90;;;;;;5095235;28;20426;-72
2023/03/02 04:15:46;;;;;;;1999.90;999.90;;;-2.20;99.90;;;;;;5094095;28;20875;-73
2023/03/02 04:18:12;;;;;;;1999.90;999.90;;;-2.20;99.90;;;;;;5097099;28;20777;-70
2023/03/02 04:20:39;;;;;;;1999.90;999.90;;;-2.10;99.90;;;;;;5092476;28;20456;-70
2023/03/02 04:23:06;;;;;;;1999.90;999.90;;;-2.00;99.90;;;;;;5091053;28;20430;-74
2023/03/02 04:25:34;;;;;;;1999.90;999.90;;;-2.20;99.90;;;;;;5090412;28;20434;-75
2023/03/02 04:28:00;;;;;;;1999.90;999.90;;;-2.30;99.90;;;;;;5086014;28;20431;-75
2023/03/02 04:30:27;;;;;;;1999.90;999.90;;;-2.40;99.90;;;;;;5089942;28;20559;-73
2023/03/02 04:32:57;;;;;;;1999.90;999.90;;;-2.30;99.90;;;;;;5094468;28;20433;-71
2023/03/02 04:35:25;;;;;;;1999.90;999.90;;;-2.40;99.90;;;;;;5093954;28;20453;-71
2023/03/02 04:37:52;;;;;;;1999.90;999.90;;;-2.30;99.90;;;;;;5091987;28;20830;-72
2023/03/02 04:40:19;;;;;;;1999.90;999.90;;;-2.10;99.90;;;;;;5092802;28;20594;-72
2023/03/02 04:42:48;;;;;;;1999.90;999.90;;;-2.20;99.90;;;;;;5089165;28;20429;-72
2023/03/02 04:45:14;;;;;;;1999.90;999.90;;;-1.80;99.90;;;;;;5089881;28;20448;-75
2023/03/02 04:47:42;;;;;;;1999.90;999.90;;;-2.30;99.90;;;;;;5093827;28;20494;-72
2023/03/02 04:50:10;;;;;;;1999.90;999.90;;;-2.20;99.90;;;;;;5096037;28;20475;-71
2023/03/02 04:52:37;;;;;;;1999.90;999.90;;;-2.30;99.90;;;;;;5094943;28;20535;-72
2023/03/02 04:55:05;;;;;;;1999.90;999.90;;;-2.40;99.90;;;;;;5090800;28;20430;-72
2023/03/02 04:57:32;;;;;;;1999.90;999.90;;;-2.50;99.90;;;;;;5094268;28;20934;-71
2023/03/02 05:00:00;;;;;;;1999.90;999.90;;;-2.60;99.90;;;;;;5094707;28;20605;-75
2023/03/02 05:02:27;;;;;;;1999.90;999.90;;;-2.50;99.90;;;;;;5093950;28;20546;-70
2023/03/02 05:04:54;;;;;;;1999.90;999.90;;;-2.40;99.90;;;;;;5095269;28;20900;-73
2023/03/02 05:07:20;;;;;;;1999.90;999.90;;;-2.50;99.90;;;;;;5093777;28;20447;-72
2023/03/02 05:09:47;;;;;;;1999.90;999.90;;;-2.50;99.90;;;;;;5090178;28;20430;-72
2023/03/02 05:12:14;;;;;;;1999.90;999.90;;;-2.40;99.90;;;;;;5087911;28;20430;-74
2023/03/02 05:14:40;;;;;;;1999.90;999.90;;;-2.20;99.90;;;;;;5091385;28;21100;-75
2023/03/02 05:17:08;;;;;;;1999.90;999.90;;;-2.30;99.90;;;;;;5089278;28;20431;-72
2023/03/02 05:19:35;;;;;;;1999.90;999.90;;;-2.40;99.90;;;;;;5091517;28;20434;-72
2023/03/02 05:22:02;;;;;;;1999.90;999.90;;;-2.40;99.90;;;;;;5093479;28;20430;-71
2023/03/02 05:24:28;;;;;;;1999.90;999.90;;;-2.40;99.90;;;;;;5093322;28;20425;-73
2023/03/02 05:26:55;;;;;;;1999.90;999.90;;;-2.30;99.90;;;;;;5089449;28;20480;-73
2023/03/02 05:29:22;;;;;;;1999.90;999.90;;;-2.20;99.90;;;;;;5092785;28;20456;-71
2023/03/02 05:31:49;;;;;;;1999.90;999.90;;;-2.20;99.90;;;;;;5089572;28;20928;-74
2023/03/02 05:34:18;;;;;;;1999.90;999.90;;;-1.90;99.90;;;;;;5088504;28;20425;-72
2023/03/02 05:36:46;;;;;;;1999.90;999.90;;;-2.20;99.90;;;;;;5091374;28;20475;-72
2023/03/02 05:39:13;;;;;;;1999.90;999.90;;;-2.30;99.90;;;;;;5092989;28;20426;-72
2023/03/02 05:41:41;;;;;;;1999.90;999.90;;;-2.30;99.90;;;;;;5091495;28;20479;-71
2023/03/02 05:44:10;;;;;;;1999.90;999.90;;;-2.20;99.90;;;;;;5090999;28;20453;-74
2023/03/02 05:46:37;;;;;;;1999.90;999.90;;;-2.20;99.90;;;;;;5091349;28;20507;-71
2023/03/02 05:49:04;;;;;;;1999.90;999.90;;;-2.30;99.90;;;;;;5088919;28;20457;-75
2023/03/02 05:51:32;;;;;;;1999.90;999.90;;;-2.30;99.90;;;;;;5088782;28;20425;-71
2023/03/02 05:53:58;;;;;;;1999.90;999.90;;;-2.40;99.90;;;;;;5091778;28;20479;-72
2023/03/02 05:56:25;;;;;;;1999.90;999.90;;;-2.40;99.90;;;;;;5091885;28;20543;-72
2023/03/02 05:58:52;;;;;;;1999.90;999.90;;;-2.60;99.90;;;;;;5088506;28;20433;-71
2023/03/02 06:01:18;;;;;;;1999.90;999.90;;;-2.60;99.90;;;;;;5091023;28;20479;-73
2023/03/02 06:03:45;;;;;;;1999.90;999.90;;;-2.50;99.90;;;;;;5088198;28;20440;-74
2023/03/02 06:06:13;;;;;;;1999.90;999.90;;;-2.60;99.90;;;;;;5091467;28;20973;-72
2023/03/02 06:08:41;;;;;;;1999.90;999.90;;;-2.60;99.90;;;;;;5092284;28;20520;-70
2023/03/02 06:11:08;;;;;;;1999.90;999.90;;;-2.60;99.90;;;;;;5094047;28;20842;-72
2023/03/02 06:13:35;;;;;;;1999.90;999.90;;;-2.50;99.90;;;;;;5092731;28;20511;-71
2023/03/02 06:16:02;;;;;;;1999.90;999.90;;;-2.40;99.90;;;;;;5090742;28;20430;-72
2023/03/02 06:18:29;;;;;;;1999.90;999.90;;;-2.30;99.90;;;;;;5089757;28;20495;-72
2023/03/02 06:20:56;;;;;;;1999.90;999.90;;;-2.40;99.90;;;;;;5092844;28;20491;-72
2023/03/02 06:23:22;;;;;;;1999.90;999.90;;;-2.30;99.90;;;;;;5095965;28;20432;-72
2023/03/02 06:25:50;;;;;;;1999.90;999.90;;;-2.30;99.90;;;;;;5093144;28;20995;-69
2023/03/02 06:28:18;;;;;;;1999.90;999.90;;;-2.20;99.90;;;;;;5120075;22;20429;-64
2023/03/02 06:30:47;;;;;;;1999.90;999.90;;;-2.20;99.90;;;;;;5108119;28;20806;-69
2023/03/02 06:33:14;;;;;;;1999.90;999.90;;;-2.00;99.90;;;;;;5098220;28;20464;-68
2023/03/02 06:35:40;;;;;;;1999.90;999.90;;;-2.00;99.90;;;;;;5098200;28;20437;-66
2023/03/02 06:38:07;;;;;;;1999.90;999.90;;;-1.90;99.90;;;;;;5101051;28;20424;-67
2023/03/02 06:40:34;;;;;;;1999.90;999.90;;;-1.80;99.90;;;;;;5078466;28;20435;-67
2023/03/02 06:43:02;;;;;;;1999.90;999.90;;;-1.20;99.90;;;;;;5078417;28;20429;-67
2023/03/02 06:45:32;;;;;;;1999.90;999.90;;;-1.70;99.90;;;;;;5085479;28;20431;-66
2023/03/02 06:47:59;;;;;;;1999.90;999.90;;;-1.50;99.90;;;;;;5078606;28;20432;-66
2023/03/02 06:50:26;;;;;;;1999.90;999.90;;;-1.30;99.90;;;;;;5082116;28;20430;-68
2023/03/02 06:52:52;;;;;;;1999.90;999.90;;;-1.30;99.90;;;;;;5073517;28;20431;-68
2023/03/02 06:55:19;;;;;;;1999.90;999.90;;;-1.30;99.90;;;;;;5073007;28;20962;-68
2023/03/02 06:57:46;;;;;;;1999.90;999.90;;;-1.10;99.90;;;;;;5072321;28;20963;-69
2023/03/02 07:00:16;;;;;;;1999.90;999.90;;;-0.90;99.90;;;;;;5073475;28;20436;-69
2023/03/02 07:02:43;;;;;;;1999.90;999.90;;;-0.70;99.90;;;;;;5073101;28;20412;-69
2023/03/02 07:05:11;;;;;;;1999.90;999.90;;;-0.50;99.90;;;;;;5092641;28;20414;-66
2023/03/02 07:07:38;;;;;;;1999.90;999.90;;;0.30;99.90;;;;;;5091820;28;20410;-69
2023/03/02 07:10:06;;;;;;;1999.90;999.90;;;0.10;99.90;;;;;;5086637;28;20504;-69
2023/03/02 07:12:33;;;;;;;1999.90;999.90;;;0.40;99.90;;;;;;5076655;28;20465;-69
2023/03/02 07:14:59;;;;;;;1999.90;999.90;;;0.40;99.90;;;;;;5075237;28;20825;-70
2023/03/02 07:17:28;;;;;;;1999.90;999.90;;;0.60;99.90;;;;;;5087906;28;20424;-72
2023/03/02 07:19:54;;;;;;;1999.90;999.90;;;0.80;99.90;;;;;;5099520;28;20422;-71
2023/03/02 07:22:21;;;;;;;1999.90;999.90;;;0.20;99.90;;;;;;5095755;28;20422;-70
2023/03/02 07:24:47;;;;;;;1999.90;999.90;;;0.30;99.90;;;;;;5100462;28;20455;-71
2023/03/02 07:27:14;;;;;;;1999.90;999.90;;;0.90;99.90;;;;;;5102147;28;20427;-69
2023/03/02 07:29:41;;;;;;;1999.90;999.90;;;0.80;99.90;;;;;;5086504;28;20430;-69
2023/03/02 07:32:07;;;;;;;1999.90;999.90;;;0.20;99.90;;;;;;5081762;28;20435;-70
2023/03/02 07:34:35;;;;;;;1999.90;999.90;;;0.40;99.90;;;;;;5085305;28;20430;-66
2023/03/02 07:37:02;;;;;;;1999.90;999.90;;;0.50;99.90;;;;;;5084936;28;20435;-72
2023/03/02 07:39:29;;;;;;;1999.90;999.90;;;0.60;99.90;;;;;;5079134;28;20904;-70
2023/03/02 07:41:58;;;;;;;1999.90;999.90;;;1.30;99.90;;;;;;5072914;28;20430;-67
2023/03/02 07:44:26;;;;;;;1999.90;999.90;;;1.50;99.90;;;;;;5084388;28;20440;-70
2023/03/02 07:46:53;;;;;;;1999.90;999.90;;;1.00;99.90;;;;;;5076702;28;20427;-69
2023/03/02 07:49:20;;;;;;;1999.90;999.90;;;1.10;99.90;;;;;;5076038;28;20459;-69
2023/03/02 07:51:48;;;;;;;1999.90;999.90;;;1.30;99.90;;;;;;5076868;28;20471;-68
2023/03/02 07:54:14;;;;;;;1999.90;999.90;;;1.40;99.90;;;;;;5078562;28;20430;-68
2023/03/02 07:56:41;;;;;;;1999.90;999.90;;;1.60;99.90;;;;;;5078812;28;20923;-69
2023/03/02 07:59:08;;;;;;;1999.90;999.90;;;1.90;99.90;;;;;;5079044;28;20429;-69
2023/03/02 08:01:34;;;;;;;1999.90;999.90;;;2.00;99.90;;;;;;5084125;28;20430;-68
2023/03/02 08:04:01;;;;;;;1999.90;999.90;;;2.70;99.90;;;;;;5080913;28;20422;-68
2023/03/02 08:06:28;;;;;;;1999.90;999.90;;;2.10;99.90;;;;;;5086964;28;20434;-68
2023/03/02 08:08:56;;;;;;;1999.90;999.90;;;2.30;99.90;;;;;;5082592;28;20794;-68
2023/03/02 08:11:22;;;;;;;1999.90;999.90;;;2.50;99.90;;;;;;5083893;28;20805;-69
2023/03/02 08:13:49;;;;;;;1999.90;999.90;;;2.70;99.90;;;;;;5077794;28;20449;-69
2023/03/02 08:16:16;;;;;;;1999.90;999.90;;;3.00;99.90;;;;;;5075428;28;20435;-69
2023/03/02 08:18:43;;;;;;;1999.90;999.90;;;3.30;99.90;;;;;;5079235;28;20923;-69
2023/03/02 08:21:15;;;;;;;1999.90;999.90;;;3.50;99.90;;;;;;5082962;28;20489;-69
2023/03/02 08:23:42;;;;;;;1999.90;999.90;;;3.60;99.90;;;;;;5073261;28;20434;-67
2023/03/02 08:26:11;;;;;;;1999.90;999.90;;;3.60;99.90;;;;;;5079589;28;20422;-68
2023/03/02 08:28:38;;;;;;;1999.90;999.90;;;3.90;99.90;;;;;;5081179;28;20461;-69
2023/03/02 08:31:06;;;;;;;1999.90;999.90;;;4.10;99.90;;;;;;5081246;28;20425;-66
2023/03/02 08:33:33;;;;;;;1999.90;999.90;;;4.40;99.90;;;;;;5076279;28;21076;-68
2023/03/02 08:36:01;;;;;;;1999.90;999.90;;;4.20;99.90;;;;;;5075304;28;20489;-68
2023/03/02 08:38:28;;;;;;;1999.90;999.90;;;4.30;99.90;;;;;;5074152;28;20843;-69
2023/03/02 08:40:55;;;;;;;1999.90;999.90;;;4.60;99.90;;;;;;5077749;28;20486;-70
2023/03/02 08:43:25;;;;;;;1999.90;999.90;;;4.90;99.90;;;;;;5073285;28;20438;-69
2023/03/02 08:45:53;;;;;;;1999.90;999.90;;;5.00;99.90;;;;;;5074537;28;20502;-69
2023/03/02 08:48:19;;;;;;;1999.90;999.90;;;4.80;99.90;;;;;;5079141;28;20430;-69
2023/03/02 08:50:55;;;;;;;1999.90;999.90;;;5.20;99.90;;;;;;5076046;28;20439;-69
2023/03/02 08:53:22;;;;;;;1999.90;999.90;;;5.30;99.90;;;;;;5076152;28;20431;-69
2023/03/02 08:55:48;;;;;;;1999.90;999.90;;;5.40;99.90;;;;;;5074768;28;20969;-66
2023/03/02 08:58:15;;;;;;;1999.90;999.90;;;5.30;99.90;;;;;;5080618;28;20451;-69
2023/03/02 09:00:43;;;;;;;1999.90;999.90;;;5.40;99.90;;;;;;5079441;28;20426;-68
2023/03/02 09:03:10;;;;;;;1999.90;999.90;;;5.50;99.90;;;;;;5083544;28;20850;-70
2023/03/02 09:05:36;;;;;;;1999.90;999.90;;;5.70;99.90;;;;;;5084884;28;20490;-69
2023/03/02 09:08:04;;;;;;;1999.90;999.90;;;5.90;99.90;;;;;;5076809;28;20426;-69
2023/03/02 09:10:31;;;;;;;1999.90;999.90;;;6.10;99.90;;;;;;5084334;28;20429;-70
2023/03/02 09:12:57;;;;;;;1999.90;999.90;;;6.00;99.90;;;;;;5082438;28;20478;-72
2023/03/02 09:15:24;;;;;;;1999.90;999.90;;;5.80;99.90;;;;;;5081841;28;20526;-67
2023/03/02 09:17:52;;;;;;;1999.90;999.90;;;5.90;99.90;;;;;;5076585;28;20866;-69
2023/03/02 09:20:19;;;;;;;1999.90;999.90;;;6.10;99.90;;;;;;5084082;28;21196;-69
2023/03/02 09:22:49;;;;;;;1999.90;999.90;;;6.30;99.90;;;;;;5079223;28;20457;-70
2023/03/02 09:25:16;;;;;;;1999.90;999.90;;;6.50;99.90;;;;;;5083305;28;20483;-69
2023/03/02 09:27:43;;;;;;;1999.90;999.90;;;6.40;99.90;;;;;;5074205;28;20520;-68
2023/03/02 09:30:11;;;;;;;1999.90;999.90;;;6.50;99.90;;;;;;5081830;28;20490;-69
2023/03/02 09:32:38;;;;;;;1999.90;999.90;;;6.60;99.90;;;;;;5083614;28;20839;-69
2023/03/02 09:35:07;;;;;;;1999.90;999.90;;;6.60;99.90;;;;;;5076226;28;20471;-68
2023/03/02 09:37:36;;;;;;;1999.90;999.90;;;7.00;99.90;;;;;;5078097;28;20434;-69
2023/03/02 09:40:02;;;;;;;1999.90;999.90;;;7.00;99.90;;;;;;5076775;28;20434;-69
2023/03/02 09:42:42;;;;;;;1999.90;999.90;;;7.10;99.90;;;;;;5083485;28;20425;-68
2023/03/02 09:45:49;;;;;;;1999.90;999.90;;;7.10;99.90;;;;;;5075622;28;20436;-70
2023/03/02 09:48:23;;;;;;;1999.90;999.90;;;6.90;99.90;;;;;;5076318;28;20427;-68
2023/03/02 09:51:01;;;;;;;1999.90;999.90;;;7.10;99.90;;;;;;5073062;28;20442;-68
2023/03/02 09:53:47;;;;;;;1999.90;999.90;;;7.10;99.90;;;;;;5077002;28;20480;-66
2023/03/02 09:56:16;;;;;;;1999.90;999.90;;;7.00;99.90;;;;;;5082552;28;20430;-68
2023/03/02 09:58:49;;;;;;;1999.90;999.90;;;7.00;99.90;;;;;;5080343;28;20448;-71
2023/03/02 10:01:22;;;;;;;1999.90;999.90;;;7.00;99.90;;;;;;5079646;28;20414;-64
2023/03/02 10:03:55;;;;;;;1999.90;999.90;;;7.10;99.90;;;;;;5080594;28;20415;-65
2023/03/02 10:06:23;;;;;;;1999.90;999.90;;;7.10;99.90;;;;;;5073420;28;20411;-68
2023/03/02 10:08:50;;;;;;;1999.90;999.90;;;7.00;99.90;;;;;;5081940;28;20925;-72
2023/03/02 10:11:28;;;;;;;1999.90;999.90;;;6.80;99.90;;;;;;5085682;28;22337;-68
2023/03/02 10:14:01;;;;;;;1999.90;999.90;;;6.90;99.90;;;;;;5093335;28;20410;-68
2023/03/02 10:16:36;;;;;;;1999.90;999.90;;;6.90;99.90;;;;;;5090218;28;20414;-67
2023/03/02 10:19:08;;;;;;;1999.90;999.90;;;7.30;99.90;;;;;;5082862;28;20837;-68
2023/03/02 10:21:40;;;;;;;1999.90;999.90;;;7.30;99.90;;;;;;5079237;28;20475;-68
2023/03/02 10:24:19;;;;;;;1999.90;999.90;;;7.20;99.90;;;;;;5074892;28;20946;-69
2023/03/02 10:26:49;;;;;;;1999.90;999.90;;;7.20;99.90;;;;;;5081914;28;20919;-64
2023/03/02 10:29:42;;;;;;;1999.90;999.90;;;6.90;99.90;;;;;;5074276;28;20912;-68
2023/03/02 10:32:18;;;;;;;1999.90;999.90;;;6.90;99.90;;;;;;5081749;28;20911;-68
2023/03/02 10:34:45;;;;;;;1999.90;999.90;;;6.80;99.90;;;;;;5081260;28;20429;-68
2023/03/02 10:37:16;;;;;;;1999.90;999.90;;;6.80;99.90;;;;;;5080015;28;20443;-68
2023/03/02 10:39:43;;;;;;;1999.90;999.90;;;6.90;99.90;;;;;;5085930;28;20473;-67
2023/03/02 10:42:15;;;;;;;1999.90;999.90;;;7.00;99.90;;;;;;5079864;28;20431;-68
2023/03/02 10:44:46;;;;;;;1999.90;999.90;;;6.90;99.90;;;;;;5085754;28;20491;-66
2023/03/02 10:47:20;;;;;;;1999.90;999.90;;;6.90;99.90;;;;;;5080694;28;20427;-68
2023/03/02 10:49:48;;;;;;;1999.90;999.90;;;7.00;99.90;;;;;;5077260;28;20466;-68
2023/03/02 10:52:17;;;;;;;1999.90;999.90;;;7.10;99.90;;;;;;5087402;28;20454;-71
2023/03/02 10:54:46;;;;;;;1999.90;999.90;;;7.10;99.90;;;;;;5088121;28;20414;-68
2023/03/02 10:57:29;;;;;;;1999.90;999.90;;;7.20;99.90;;;;;;5089080;28;20527;-64
2023/03/02 11:00:00;;;;;;;1999.90;999.90;;;7.20;99.90;;;;;;5079873;28;20420;-68
2023/03/02 11:02:28;;;;;;;1999.90;999.90;;;7.30;99.90;;;;;;5084003;28;20891;-68
2023/03/02 11:04:56;;;;;;;1999.90;999.90;;;7.50;99.90;;;;;;5088033;28;20426;-68
2023/03/02 11:07:25;;;;;;;1999.90;999.90;;;7.80;99.90;;;;;;5092371;28;20413;-67
2023/03/02 11:10:00;;;;;;;1999.90;999.90;;;8.40;99.90;;;;;;5077481;28;20472;-67
2023/03/02 11:12:27;;;;;;;1999.90;999.90;;;8.40;99.90;;;;;;5071831;28;20920;-68
2023/03/02 11:15:19;;;;;;;1999.90;999.90;;;8.20;99.90;;;;;;5081086;28;20831;-68
2023/03/02 11:17:48;;;;;;;1999.90;999.90;;;8.20;99.90;;;;;;5091943;28;20467;-67
2023/03/02 11:20:19;;;;;;;1999.90;999.90;;;8.20;99.90;;;;;;5092036;28;21212;-68
2023/03/02 11:22:58;;;;;;;1999.90;999.90;;;8.70;99.90;;;;;;5092243;28;20446;-67
2023/03/02 11:25:30;;;;;;;1999.90;999.90;;;8.90;99.90;;;;;;5092189;28;20483;-65
2023/03/02 11:28:02;;;;;;;1999.90;999.90;;;8.70;99.90;;;;;;5091972;28;20410;-70
2023/03/02 11:30:31;;;;;;;1999.90;999.90;;;8.40;99.90;;;;;;5080875;28;20433;-67
2023/03/02 11:33:06;;;;;;;1999.90;999.90;;;8.30;99.90;;;;;;5078284;28;20844;-68
2023/03/02 11:35:37;;;;;;;1999.90;999.90;;;8.20;99.90;;;;;;5086065;28;20499;-69
2023/03/02 11:38:16;;;;;;;1999.90;999.90;;;8.20;99.90;;;;;;5082950;28;20430;-68
2023/03/02 11:40:46;;;;;;;1999.90;999.90;;;8.00;99.90;;;;;;5078568;28;20436;-68
2023/03/02 11:43:13;;;;;;;1999.90;999.90;;;8.00;99.90;;;;;;5089642;28;20479;-68
2023/03/02 11:45:44;;;;;;;1999.90;999.90;;;7.90;99.90;;;;;;5080280;28;20430;-68
2023/03/02 11:48:21;;;;;;;1999.90;999.90;;;7.90;99.90;;;;;;5071902;28;20411;-66
2023/03/02 11:50:55;;;;;;;1999.90;999.90;;;7.90;99.90;;;;;;5075781;28;20436;-68
2023/03/02 11:53:25;;;;;;;1999.90;999.90;;;8.00;99.90;;;;;;5082021;28;20423;-68
2023/03/02 11:55:52;;;;;;;1999.90;999.90;;;8.10;99.90;;;;;;5073571;28;20434;-68
2023/03/02 11:58:20;;;;;;;1999.90;999.90;;;8.00;99.90;;;;;;5080871;28;20431;-68
2023/03/02 12:00:48;;;;;;;1999.90;999.90;;;8.10;99.90;;;;;;5081719;28;20506;-68
2023/03/02 12:03:35;;;;;;;1999.90;999.90;;;8.30;99.90;;;;;;5084560;28;20426;-67
2023/03/02 12:06:05;;;;;;;1999.90;999.90;;;8.30;99.90;;;;;;5073261;28;20414;-67
2023/03/02 12:08:37;;;;;;;1999.90;999.90;;;8.20;99.90;;;;;;5074665;28;20430;-65
2023/03/02 12:11:07;;;;;;;1999.90;999.90;;;8.30;99.90;;;;;;5087882;28;20475;-67